createdAt,value
2019-02-28T00:01:28.568Z,9.30
2019-02-28T00:04:01.034Z,9.27
2019-02-28T00:06:32.489Z,9.00
2019-02-28T00:09:04.912Z,10.23
2019-02-28T00:11:39.575Z,9.70
2019-02-28T00:14:10.992Z,8.63
2019-02-28T00:16:42.371Z,9.60
2019-02-28T00:19:13.794Z,9.23
2019-02-28T00:21:45.109Z,9.20
2019-02-28T00:24:16.540Z,10.47
2019-02-28T00:26:48.041Z,9.17
2019-02-28T00:29:19.438Z,9.17
2019-02-28T00:31:51.065Z,9.00
2019-02-28T00:34:22.359Z,9.43
2019-02-28T00:36:54.102Z,9.87
2019-02-28T00:39:25.786Z,9.67
2019-02-28T00:41:57.182Z,8.83
2019-02-28T00:44:31.234Z,9.70
2019-02-28T00:47:01.665Z,9.83
2019-02-28T00:49:32.990Z,9.87
2019-02-28T00:52:04.548Z,9.20
2019-02-28T00:54:35.997Z,9.27
2019-02-28T00:57:07.401Z,9.30
2019-02-28T00:59:38.924Z,8.60
2019-02-28T01:02:10.268Z,9.13
2019-02-28T01:04:42.472Z,9.50
2019-02-28T01:07:16.274Z,9.80
2019-02-28T01:09:46.894Z,9.70
2019-02-28T01:12:19.186Z,9.40
2019-02-28T01:14:51.412Z,9.17
2019-02-28T01:17:24.052Z,9.53
2019-02-28T01:19:56.177Z,10.07
2019-02-28T01:22:28.106Z,9.37
2019-02-28T01:24:59.937Z,9.13
2019-02-28T01:27:31.272Z,9.57
2019-02-28T01:30:02.595Z,8.63
2019-02-28T01:32:35.116Z,8.07
2019-02-28T01:35:08.566Z,8.07
2019-02-28T01:37:40.034Z,7.40
2019-02-28T01:40:15.544Z,6.43
2019-02-28T01:42:59.074Z,5.90
2019-02-28T01:45:30.396Z,5.97
2019-02-28T01:48:01.804Z,6.73
2019-02-28T01:50:33.203Z,5.30
2019-02-28T01:53:04.512Z,5.33
2019-02-28T01:55:36.002Z,5.80
2019-02-28T01:58:07.330Z,5.80
2019-02-28T02:00:38.849Z,6.17
2019-02-28T02:03:10.284Z,5.43
2019-02-28T02:05:41.798Z,6.00
2019-02-28T02:08:13.244Z,4.83
2019-02-28T02:10:44.800Z,5.43
2019-02-28T02:13:16.189Z,5.30
2019-02-28T02:15:51.414Z,5.80
2019-02-28T02:18:21.687Z,5.87
2019-02-28T02:20:53.021Z,6.10
2019-02-28T02:23:25.443Z,5.73
2019-02-28T02:25:56.839Z,6.00
2019-02-28T02:28:28.223Z,6.10
2019-02-28T02:30:59.609Z,6.60
2019-02-28T02:33:31.000Z,6.87
2019-02-28T02:36:02.543Z,6.70
2019-02-28T02:38:39.866Z,7.00
2019-02-28T02:41:07.118Z,7.17
2019-02-28T02:43:38.429Z,8.77
2019-02-28T02:46:09.784Z,8.83
2019-02-28T02:48:42.330Z,9.03
2019-02-28T02:51:14.327Z,9.00
2019-02-28T02:53:49.955Z,9.77
2019-02-28T02:56:21.421Z,10.70
2019-02-28T02:58:52.827Z,11.63
2019-02-28T03:01:24.515Z,13.10
2019-02-28T03:03:56.201Z,12.20
2019-02-28T03:06:28.438Z,11.47
2019-02-28T03:08:59.942Z,10.73
2019-02-28T03:11:31.300Z,9.50
2019-02-28T03:14:02.605Z,8.67
2019-02-28T03:16:37.779Z,8.30
2019-02-28T03:19:09.265Z,8.50
2019-02-28T03:21:40.638Z,7.97
2019-02-28T03:24:15.148Z,8.57
2019-02-28T03:26:44.899Z,8.53
2019-02-28T03:29:16.187Z,7.77
2019-02-28T03:31:54.552Z,8.03
2019-02-28T03:34:20.680Z,8.27
2019-02-28T03:36:57.061Z,8.03
2019-02-28T03:39:25.790Z,7.80
2019-02-28T03:41:57.225Z,8.10
2019-02-28T03:44:28.494Z,8.17
2019-02-28T03:46:59.858Z,8.13
2019-02-28T03:49:31.135Z,8.73
2019-02-28T03:52:06.710Z,8.00
2019-02-28T03:54:35.449Z,7.77
2019-02-28T03:57:06.857Z,7.87
2019-02-28T03:59:38.265Z,7.43
2019-02-28T04:02:09.691Z,8.77
2019-02-28T04:04:48.423Z,7.20
2019-02-28T04:07:16.043Z,8.90
2019-02-28T04:09:47.170Z,8.00
2019-02-28T04:12:18.518Z,7.83
2019-02-28T04:14:49.774Z,7.17
2019-02-28T04:17:21.142Z,7.53
2019-02-28T04:19:58.622Z,8.67
2019-02-28T04:22:25.462Z,8.13
2019-02-28T04:24:56.728Z,8.63
2019-02-28T04:27:29.699Z,10.73
2019-02-28T04:30:05.867Z,9.40
2019-02-28T04:32:35.359Z,9.53
2019-02-28T04:35:06.935Z,9.30
2019-02-28T04:37:44.675Z,9.50
2019-02-28T04:40:14.254Z,9.30
2019-02-28T04:42:45.713Z,8.80
2019-02-28T04:45:17.099Z,9.60
2019-02-28T04:47:48.578Z,9.53
2019-02-28T04:50:20.032Z,10.63
2019-02-28T04:52:51.321Z,10.43
2019-02-28T04:55:23.582Z,10.90
2019-02-28T04:57:54.865Z,10.57
2019-02-28T05:00:26.366Z,10.70
2019-02-28T05:02:57.679Z,10.23
2019-02-28T05:05:30.081Z,11.03
2019-02-28T05:08:05.706Z,11.00
2019-02-28T05:10:35.750Z,10.90
2019-02-28T05:13:07.167Z,9.87
2019-02-28T05:15:40.910Z,10.90
2019-02-28T05:18:11.463Z,10.80
2019-02-28T05:20:45.927Z,12.30
2019-02-28T05:23:16.108Z,11.83
2019-02-28T05:25:52.132Z,11.33
2019-02-28T05:28:23.322Z,14.00
2019-02-28T05:30:57.950Z,14.67
2019-02-28T05:33:29.338Z,15.77
2019-02-28T05:36:04.171Z,14.40
2019-02-28T05:38:33.930Z,14.23
2019-02-28T05:41:05.364Z,13.97
2019-02-28T05:43:36.694Z,15.07
2019-02-28T05:46:08.029Z,14.53
2019-02-28T05:48:39.584Z,14.17
2019-02-28T05:51:11.067Z,13.67
2019-02-28T05:53:42.766Z,13.33
2019-02-28T05:56:14.169Z,13.40
2019-02-28T05:58:45.441Z,13.17
2019-02-28T06:01:16.895Z,13.10
2019-02-28T06:03:48.170Z,12.30
2019-02-28T06:06:20.248Z,13.10
2019-02-28T06:08:53.218Z,12.83
2019-02-28T06:11:24.629Z,14.47
2019-02-28T06:13:56.167Z,12.87
2019-02-28T06:16:27.476Z,14.13
2019-02-28T06:18:58.783Z,13.47
2019-02-28T06:21:30.110Z,13.77
2019-02-28T06:24:01.450Z,13.37
2019-02-28T06:26:33.007Z,13.50
2019-02-28T06:29:04.947Z,13.47
2019-02-28T06:31:37.002Z,14.53
2019-02-28T06:34:09.391Z,13.73
2019-02-28T06:36:40.672Z,14.30
2019-02-28T06:39:12.132Z,14.30
2019-02-28T06:41:43.458Z,14.17
2019-02-28T06:44:14.787Z,15.77
2019-02-28T06:46:46.185Z,14.57
2019-02-28T06:49:17.598Z,15.03
2019-02-28T06:51:51.359Z,15.13
2019-02-28T06:54:21.934Z,15.87
2019-02-28T06:56:54.099Z,15.07
2019-02-28T06:59:26.313Z,15.03
2019-02-28T07:01:57.728Z,14.33
2019-02-28T07:04:30.194Z,16.17
2019-02-28T07:07:01.466Z,14.70
2019-02-28T07:09:33.626Z,14.13
2019-02-28T07:12:05.961Z,14.90
2019-02-28T07:14:37.478Z,15.47
2019-02-28T07:17:10.790Z,15.03
2019-02-28T07:19:41.994Z,14.80
2019-02-28T07:22:19.151Z,15.53
2019-02-28T07:24:46.493Z,15.97
2019-02-28T07:27:17.825Z,15.13
2019-02-28T07:29:49.168Z,15.93
2019-02-28T07:32:20.691Z,15.83
2019-02-28T07:34:57.746Z,15.53
2019-02-28T07:37:24.997Z,15.67
2019-02-28T07:39:56.441Z,17.43
2019-02-28T07:42:27.870Z,16.63
2019-02-28T07:44:59.182Z,16.33
2019-02-28T07:47:30.517Z,16.77
2019-02-28T07:50:03.592Z,16.20
2019-02-28T07:52:34.843Z,15.67
2019-02-28T07:55:19.635Z,15.13
2019-02-28T07:57:53.285Z,17.03
2019-02-28T08:00:27.262Z,18.63
2019-02-28T08:02:58.665Z,20.87
2019-02-28T08:05:30.908Z,21.13
2019-02-28T08:08:03.567Z,21.42
2019-02-28T08:10:36.445Z,20.75
2019-02-28T08:13:07.806Z,20.80
2019-02-28T08:15:39.303Z,20.30
2019-02-28T08:18:10.796Z,20.00
2019-02-28T08:20:42.340Z,19.82
2019-02-28T08:23:13.757Z,20.45
2019-02-28T08:25:45.146Z,19.92
2019-02-28T08:28:16.529Z,19.90
2019-02-28T08:30:47.958Z,20.32
2019-02-28T08:33:21.055Z,20.62
2019-02-28T08:35:52.348Z,21.37
2019-02-28T08:38:23.854Z,21.68
2019-02-28T08:40:55.204Z,19.82
2019-02-28T08:43:27.328Z,20.27
2019-02-28T08:45:58.877Z,20.00
2019-02-28T08:48:32.440Z,20.15
2019-02-28T08:51:03.385Z,20.57
2019-02-28T08:53:34.938Z,19.42
2019-02-28T08:56:06.411Z,20.25
2019-02-28T08:58:38.511Z,20.05
2019-02-28T09:01:09.973Z,18.85
2019-02-28T09:03:41.320Z,19.32
2019-02-28T09:06:12.670Z,20.17
2019-02-28T09:08:45.365Z,19.87
2019-02-28T09:11:20.538Z,18.05
2019-02-28T09:13:49.832Z,18.52
2019-02-28T09:16:21.118Z,18.17
2019-02-28T09:18:52.696Z,16.35
2019-02-28T09:21:24.122Z,17.20
2019-02-28T09:23:55.581Z,17.05
2019-02-28T09:26:31.398Z,16.62
2019-02-28T09:29:01.750Z,16.30
2019-02-28T09:31:38.712Z,18.27
2019-02-28T09:34:09.244Z,16.73
2019-02-28T09:36:40.710Z,17.60
2019-02-28T09:39:12.264Z,18.27
2019-02-28T09:41:43.684Z,17.50
2019-02-28T09:44:15.098Z,17.40
2019-02-28T09:46:50.386Z,18.45
2019-02-28T09:49:19.480Z,19.62
2019-02-28T09:51:51.910Z,19.87
2019-02-28T09:54:24.380Z,18.95
2019-02-28T09:56:56.399Z,19.73
2019-02-28T09:59:27.690Z,18.52
2019-02-28T10:02:01.603Z,18.80
2019-02-28T10:04:32.580Z,20.43
2019-02-28T10:07:03.986Z,19.95
2019-02-28T10:09:35.284Z,19.37
2019-02-28T10:12:07.807Z,19.52
2019-02-28T10:14:40.062Z,20.17
2019-02-28T10:17:11.472Z,19.60
2019-02-28T10:19:45.787Z,20.95
2019-02-28T10:22:15.943Z,20.55
2019-02-28T10:24:47.327Z,21.07
2019-02-28T10:27:18.811Z,19.15
2019-02-28T10:29:50.318Z,19.67
2019-02-28T10:32:21.792Z,19.55
2019-02-28T10:34:54.225Z,20.75
2019-02-28T10:37:25.566Z,19.12
2019-02-28T10:39:56.872Z,19.70
2019-02-28T10:42:28.270Z,19.65
2019-02-28T10:44:59.540Z,20.65
2019-02-28T10:47:32.094Z,20.02
2019-02-28T10:50:03.553Z,16.15
2019-02-28T10:52:34.904Z,18.65
2019-02-28T10:55:10.958Z,18.98
2019-02-28T10:57:42.549Z,19.48
2019-02-28T11:00:32.834Z,19.05
2019-02-28T11:03:04.480Z,19.45
2019-02-28T11:05:42.692Z,19.48
2019-02-28T11:08:19.150Z,17.48
2019-02-28T11:10:50.139Z,17.32
2019-02-28T11:13:23.021Z,16.10
2019-02-28T11:15:56.325Z,15.65
2019-02-28T11:18:27.823Z,15.78
2019-02-28T11:20:59.387Z,15.72
2019-02-28T11:23:30.932Z,16.02
2019-02-28T11:26:03.437Z,15.72
2019-02-28T11:28:35.929Z,16.32
2019-02-28T11:31:11.185Z,15.40
2019-02-28T11:33:43.212Z,15.95
2019-02-28T11:36:14.555Z,15.85
2019-02-28T11:38:45.899Z,16.52
2019-02-28T11:41:18.708Z,15.50
2019-02-28T11:43:50.423Z,15.43
2019-02-28T11:46:21.791Z,16.10
2019-02-28T11:48:54.140Z,14.58
2019-02-28T11:51:26.620Z,15.55
2019-02-28T11:53:58.090Z,14.73
2019-02-28T11:56:29.601Z,14.55
2019-02-28T11:59:01.051Z,15.03
2019-02-28T12:01:32.445Z,15.60
2019-02-28T12:04:03.869Z,15.20
2019-02-28T12:06:35.614Z,15.60
2019-02-28T12:09:08.118Z,14.63
2019-02-28T12:11:39.596Z,14.75
2019-02-28T12:14:11.067Z,13.80
2019-02-28T12:16:42.577Z,14.90
2019-02-28T12:19:15.922Z,14.40
2019-02-28T12:21:47.102Z,14.38
2019-02-28T12:24:18.497Z,13.65
2019-02-28T12:26:52.617Z,14.60
2019-02-28T12:29:23.046Z,14.10
2019-02-28T12:31:54.321Z,14.33
2019-02-28T12:34:28.741Z,13.45
2019-02-28T12:36:59.910Z,13.28
2019-02-28T12:39:33.278Z,13.88
2019-02-28T12:42:04.484Z,13.10
2019-02-28T12:44:35.840Z,13.30
2019-02-28T12:47:07.445Z,12.53
2019-02-28T12:49:38.938Z,13.65
2019-02-28T12:52:11.251Z,13.25
2019-02-28T12:54:43.375Z,14.28
2019-02-28T12:57:15.520Z,14.58
2019-02-28T12:59:47.047Z,14.15
2019-02-28T13:02:18.498Z,13.95
2019-02-28T13:04:49.874Z,14.25
2019-02-28T13:07:21.251Z,14.87
2019-02-28T13:09:52.688Z,14.38
2019-02-28T13:12:24.043Z,15.83
2019-02-28T13:14:55.484Z,15.48
2019-02-28T13:17:31.612Z,16.00
2019-02-28T13:20:02.973Z,16.93
2019-02-28T13:22:40.411Z,21.60
2019-02-28T13:25:13.892Z,18.73
2019-02-28T13:27:46.978Z,17.00
2019-02-28T13:30:29.318Z,17.52
2019-02-28T13:33:15.001Z,18.35
2019-02-28T13:35:47.574Z,18.75
2019-02-28T13:38:20.967Z,18.52
2019-02-28T13:40:52.449Z,17.87
2019-02-28T13:43:23.839Z,18.75
2019-02-28T13:45:56.282Z,18.12
2019-02-28T13:48:33.186Z,19.25
2019-02-28T13:51:02.396Z,18.85
2019-02-28T13:53:34.772Z,18.62
2019-02-28T13:56:06.241Z,18.45
2019-02-28T13:58:37.668Z,18.40
2019-02-28T14:01:09.281Z,19.02
2019-02-28T14:03:42.324Z,18.40
2019-02-28T14:08:47.646Z,18.77
2019-02-28T14:11:19.518Z,18.70
2019-02-28T14:13:50.881Z,17.95
2019-02-28T14:16:34.283Z,18.77
2019-02-28T14:19:06.476Z,18.73
2019-02-28T14:21:39.418Z,18.98
2019-02-28T14:24:12.002Z,19.02
2019-02-28T14:26:46.529Z,18.10
2019-02-28T14:29:17.930Z,19.37
2019-02-28T14:31:49.383Z,19.55
2019-02-28T14:34:20.835Z,18.85
2019-02-28T14:36:52.357Z,18.92
2019-02-28T14:39:23.837Z,19.87
2019-02-28T14:41:57.049Z,18.95
2019-02-28T14:44:31.735Z,19.45
2019-02-28T14:47:02.532Z,18.23
2019-02-28T14:49:33.940Z,18.60
2019-02-28T14:52:05.965Z,17.55
2019-02-28T14:54:37.565Z,16.32
2019-02-28T14:57:09.026Z,16.75
2019-02-28T14:59:40.388Z,16.32
2019-02-28T15:02:12.987Z,15.90
2019-02-28T15:04:45.829Z,15.72
2019-02-28T15:07:17.579Z,15.35
2019-02-28T15:09:48.934Z,16.15
2019-02-28T15:12:23.353Z,14.93
2019-02-28T15:14:53.584Z,14.87
2019-02-28T15:17:24.985Z,15.55
2019-02-28T15:19:57.946Z,14.65
2019-02-28T15:22:29.595Z,14.10
2019-02-28T15:25:01.107Z,15.00
2019-02-28T15:27:32.908Z,14.83
2019-02-28T15:30:06.208Z,15.08
2019-02-28T15:32:37.698Z,14.95
2019-02-28T15:35:16.349Z,13.98
2019-02-28T15:37:47.844Z,13.93
2019-02-28T15:40:26.061Z,14.58
2019-02-28T15:42:58.037Z,16.37
2019-02-28T15:45:29.476Z,15.30
2019-02-28T15:48:01.022Z,16.60
2019-02-28T15:50:32.382Z,17.62
2019-02-28T15:53:05.101Z,17.17
2019-02-28T15:55:36.665Z,19.40
2019-02-28T15:58:08.248Z,19.30
2019-02-28T16:00:39.811Z,19.40
2019-02-28T16:03:13.474Z,19.62
2019-02-28T16:05:44.405Z,20.75
2019-02-28T16:08:16.043Z,20.17
2019-02-28T16:10:59.443Z,20.75
2019-02-28T16:13:31.200Z,22.00
2019-02-28T16:16:02.686Z,20.43
2019-02-28T16:18:34.207Z,23.05
2019-02-28T16:21:07.367Z,23.87
2019-02-28T16:23:39.254Z,24.45
2019-02-28T16:26:10.705Z,24.55
2019-02-28T16:28:42.648Z,30.97
2019-02-28T16:31:14.801Z,26.52
2019-02-28T16:33:46.388Z,25.88
2019-02-28T16:36:17.740Z,24.12
2019-02-28T16:38:49.076Z,25.12
2019-02-28T16:41:20.590Z,22.30
2019-02-28T16:43:58.054Z,20.85
2019-02-28T16:46:27.974Z,18.77
2019-02-28T16:49:01.100Z,18.40
2019-02-28T16:51:35.441Z,14.98
2019-02-28T16:54:06.943Z,13.22
2019-02-28T16:56:38.761Z,14.65
2019-02-28T16:59:10.378Z,15.40
2019-02-28T17:01:44.949Z,12.60
2019-02-28T17:04:17.085Z,11.88
2019-02-28T17:06:50.547Z,10.70
2019-02-28T17:09:26.619Z,10.45
2019-02-28T17:12:07.600Z,11.20
2019-02-28T17:14:39.033Z,8.40
2019-02-28T17:17:14.733Z,8.95
2019-02-28T17:19:46.235Z,9.08
2019-02-28T17:22:18.844Z,9.13
2019-02-28T17:24:50.260Z,9.95
2019-02-28T17:27:23.163Z,9.63
2019-02-28T17:29:57.603Z,9.00
2019-02-28T17:32:31.204Z,9.05
2019-02-28T17:35:02.832Z,9.20
2019-02-28T17:37:35.337Z,8.55
2019-02-28T17:40:11.535Z,9.08
2019-02-28T17:42:43.351Z,8.63
2019-02-28T17:45:18.988Z,7.35
2019-02-28T17:48:32.984Z,6.65
2019-02-28T17:51:24.475Z,6.70
2019-02-28T17:54:22.514Z,7.22
2019-02-28T17:57:12.699Z,7.70
2019-02-28T18:00:04.872Z,6.78
2019-02-28T18:02:51.154Z,6.65
2019-02-28T18:05:50.149Z,7.45
2019-02-28T18:08:48.580Z,7.65
2019-02-28T18:11:54.462Z,7.90
2019-02-28T18:14:45.463Z,9.23
2019-02-28T18:17:56.400Z,8.93
2019-02-28T18:20:54.152Z,9.00
2019-02-28T18:24:00.115Z,10.40
2019-02-28T18:27:00.260Z,9.93
2019-02-28T18:30:15.797Z,9.93
2019-02-28T18:32:47.196Z,10.13
2019-02-28T18:35:18.810Z,10.95
2019-02-28T18:37:52.741Z,11.28
2019-02-28T18:40:26.894Z,10.80
2019-02-28T18:42:58.310Z,12.45
2019-02-28T18:45:32.866Z,12.47
2019-02-28T18:48:04.369Z,12.58
2019-02-28T18:50:35.931Z,12.60
2019-02-28T18:53:07.433Z,12.82
2019-02-28T18:55:38.865Z,13.43
2019-02-28T18:58:10.216Z,13.05
2019-02-28T19:00:41.774Z,12.73
2019-02-28T19:03:13.563Z,12.20
2019-02-28T19:05:46.742Z,12.82
2019-02-28T19:08:18.176Z,12.13
2019-02-28T19:11:05.204Z,11.50
2019-02-28T19:13:36.402Z,11.40
2019-02-28T19:16:08.139Z,11.85
2019-02-28T19:18:39.641Z,11.45
2019-02-28T19:21:11.290Z,10.28
2019-02-28T19:23:42.691Z,10.85
2019-02-28T19:28:47.484Z,10.38
2019-02-28T19:31:18.996Z,9.33
2019-02-28T19:33:51.710Z,8.73
2019-02-28T19:36:23.080Z,8.45
2019-02-28T19:38:56.646Z,8.75
2019-02-28T19:41:30.142Z,8.55
2019-02-28T19:44:03.904Z,8.93
2019-02-28T19:46:35.427Z,7.67
2019-02-28T19:49:07.032Z,7.75
2019-02-28T19:51:40.273Z,7.53
2019-02-28T19:54:11.815Z,7.10
2019-02-28T19:56:43.419Z,7.03
2019-02-28T19:59:14.985Z,7.55
2019-02-28T20:01:46.420Z,7.95
2019-02-28T20:04:17.943Z,7.47
2019-02-28T20:06:49.345Z,6.53
2019-02-28T20:09:23.519Z,7.45
2019-02-28T20:11:54.966Z,6.75
2019-02-28T20:14:27.966Z,6.42
2019-02-28T20:16:59.511Z,6.75
2019-02-28T20:19:31.057Z,6.60
2019-02-28T20:22:02.548Z,6.45
2019-02-28T20:24:38.093Z,5.53
2019-02-28T20:27:09.575Z,5.67
2019-02-28T20:29:41.664Z,5.92
2019-02-28T20:32:13.031Z,5.67
2019-02-28T20:34:45.448Z,5.62
2019-02-28T20:37:17.274Z,5.67
2019-02-28T20:39:48.750Z,6.28
2019-02-28T20:42:20.271Z,5.42
2019-02-28T20:44:51.821Z,5.17
2019-02-28T20:47:36.782Z,5.33
2019-02-28T20:50:31.233Z,5.15
2019-02-28T20:53:02.706Z,5.03
2019-02-28T20:55:34.457Z,5.40
2019-02-28T20:58:05.930Z,5.70
2019-02-28T21:00:37.622Z,4.92
2019-02-28T21:03:09.086Z,5.03
2019-02-28T21:05:40.653Z,4.08
2019-02-28T21:08:12.050Z,4.90
2019-02-28T21:10:43.654Z,4.83
2019-02-28T21:13:15.070Z,4.55
2019-02-28T21:15:45.927Z,5.03
2019-02-28T21:18:17.448Z,5.30
2019-02-28T21:20:49.138Z,5.08
2019-02-28T21:23:22.445Z,4.85
2019-02-28T21:25:54.472Z,5.00
2019-02-28T21:28:25.913Z,4.42
2019-02-28T21:30:58.423Z,4.70
2019-02-28T21:33:29.944Z,4.25
2019-02-28T21:36:01.704Z,4.65
2019-02-28T21:38:34.290Z,4.42
2019-02-28T21:41:05.847Z,4.33
2019-02-28T21:43:37.337Z,5.25
2019-02-28T21:46:08.835Z,4.87
2019-02-28T21:48:40.244Z,5.10
2019-02-28T21:51:11.766Z,4.40
2019-02-28T21:53:43.297Z,4.60
2019-02-28T21:56:14.893Z,4.58
2019-02-28T21:58:46.382Z,4.40
2019-02-28T22:01:17.929Z,4.45
2019-02-28T22:03:49.463Z,4.58
2019-02-28T22:06:23.054Z,4.67
2019-02-28T22:08:54.914Z,4.92
2019-02-28T22:11:26.281Z,4.47
2019-02-28T22:13:57.627Z,4.20
2019-02-28T22:16:29.115Z,4.58
2019-02-28T22:19:00.557Z,4.80
2019-02-28T22:21:31.834Z,4.03
2019-02-28T22:24:03.121Z,4.92
2019-02-28T22:26:34.545Z,4.53
2019-02-28T22:29:06.096Z,4.15
2019-02-28T22:31:43.064Z,4.33
2019-02-28T22:34:16.191Z,5.12
2019-02-28T22:36:47.692Z,4.80
2019-02-28T22:39:19.008Z,5.47
2019-02-28T22:41:50.335Z,5.58
2019-02-28T22:44:21.810Z,5.35
2019-02-28T22:46:53.340Z,5.03
2019-02-28T22:49:24.758Z,5.15
2019-02-28T22:51:56.239Z,5.70
2019-02-28T22:54:27.530Z,4.95
2019-02-28T22:56:59.077Z,5.05
2019-02-28T22:59:30.517Z,5.08
2019-02-28T23:02:02.171Z,4.70
2019-02-28T23:04:33.571Z,5.25
2019-02-28T23:07:05.133Z,4.90
2019-02-28T23:09:36.522Z,3.95
2019-02-28T23:12:08.055Z,4.08
2019-02-28T23:14:39.540Z,4.47
2019-02-28T23:17:10.997Z,4.47
2019-02-28T23:19:42.237Z,4.47
2019-02-28T23:22:13.641Z,4.30
2019-02-28T23:24:44.893Z,3.55
2019-02-28T23:27:17.707Z,3.42
2019-02-28T23:29:59.954Z,4.10
2019-02-28T23:32:42.314Z,4.03
2019-02-28T23:35:24.850Z,4.05
2019-02-28T23:37:56.246Z,4.70
2019-02-28T23:40:27.498Z,3.92
2019-02-28T23:42:58.839Z,2.92
2019-02-28T23:45:30.329Z,4.37
2019-02-28T23:48:01.792Z,3.85
2019-02-28T23:50:33.270Z,3.33
2019-02-28T23:53:04.724Z,3.95
2019-02-28T23:55:36.313Z,4.10
2019-02-28T23:58:07.633Z,3.80
